createdAt,value
2023-04-08T00:00:18.888Z,101214.56
2023-04-08T00:05:53.729Z,101220.83
2023-04-08T00:11:04.599Z,101220.12
2023-04-08T00:16:12.634Z,101222.84
2023-04-08T00:21:21.230Z,101222.31
2023-04-08T00:26:27.418Z,101222.83
2023-04-08T00:31:32.901Z,101224.23
2023-04-08T00:36:38.523Z,101216.48
2023-04-08T00:41:44.102Z,101214.39
2023-04-08T00:46:49.998Z,101216.08
2023-04-08T00:51:56.301Z,101221.27
2023-04-08T00:57:01.945Z,101229.05
2023-04-08T01:02:15.741Z,101232.86
2023-04-08T01:07:26.230Z,101234.74
2023-04-08T01:12:39.976Z,101239.16
2023-04-08T01:17:47.176Z,101242.33
2023-04-08T01:23:09.811Z,101248.58
2023-04-08T01:28:19.399Z,101246.23
2023-04-08T01:33:27.511Z,101243.74
2023-04-08T01:38:39.487Z,101241.86
2023-04-08T01:43:46.321Z,101234.09
2023-04-08T01:48:52.899Z,101243.67
2023-04-08T01:53:59.028Z,101261.73
2023-04-08T01:59:10.680Z,101262.27
2023-04-08T02:04:16.303Z,101260.46
2023-04-08T02:09:25.169Z,101263.49
2023-04-08T02:14:31.188Z,101265.50
2023-04-08T02:19:46.936Z,101277.13
2023-04-08T02:24:53.135Z,101276.77
2023-04-08T02:30:00.804Z,101286.13
2023-04-08T02:35:09.448Z,101289.52
2023-04-08T02:40:29.236Z,101297.80
2023-04-08T02:45:38.397Z,101301.84
2023-04-08T02:50:43.968Z,101308.59
2023-04-08T02:55:49.603Z,101311.11
2023-04-08T03:00:55.628Z,101320.73
2023-04-08T03:06:01.304Z,101318.50
2023-04-08T03:11:07.042Z,101319.79
2023-04-08T03:16:12.724Z,101328.86
2023-04-08T03:21:18.328Z,101335.27
2023-04-08T03:26:23.965Z,101330.69
2023-04-08T03:31:32.702Z,101333.59
2023-04-08T03:36:38.469Z,101339.87
2023-04-08T03:41:44.141Z,101342.21
2023-04-08T03:46:50.061Z,101341.02
2023-04-08T03:51:55.790Z,101347.09
2023-04-08T03:57:01.402Z,101350.46
2023-04-08T04:02:07.177Z,101356.50
2023-04-08T04:07:12.814Z,101360.09
2023-04-08T04:12:20.470Z,101363.77
2023-04-08T04:17:26.208Z,101371.98
2023-04-08T04:22:31.833Z,101375.09
2023-04-08T04:27:37.573Z,101378.21
2023-04-08T04:32:44.225Z,101386.83
2023-04-08T04:37:52.001Z,101390.14
2023-04-08T04:42:57.742Z,101391.60
2023-04-08T04:48:08.245Z,101400.20
2023-04-08T04:53:16.074Z,101410.26
2023-04-08T04:58:23.729Z,101407.71
2023-04-08T05:03:30.727Z,101401.28
2023-04-08T05:08:36.662Z,101404.83
2023-04-08T05:13:42.233Z,101408.26
2023-04-08T05:18:47.977Z,101411.41
2023-04-08T05:23:54.477Z,101412.38
2023-04-08T05:28:59.978Z,101412.41
2023-04-08T05:34:05.463Z,101414.73
2023-04-08T05:39:10.952Z,101409.30
2023-04-08T05:44:16.394Z,101410.87
2023-04-08T05:49:22.121Z,101414.13
2023-04-08T05:54:27.670Z,101416.03
2023-04-08T05:59:33.467Z,101418.23
2023-04-08T06:04:39.864Z,101420.23
2023-04-08T06:09:45.656Z,101423.60
2023-04-08T06:14:56.188Z,101425.44
2023-04-08T06:20:07.873Z,101428.05
2023-04-08T06:25:13.741Z,101433.97
2023-04-08T06:30:19.349Z,101436.79
2023-04-08T06:35:29.620Z,101438.06
2023-04-08T06:40:35.442Z,101433.00
2023-04-08T06:45:43.245Z,101437.38
2023-04-08T06:50:48.805Z,101433.96
2023-04-08T06:55:55.148Z,101434.44
2023-04-08T07:01:03.501Z,101443.42
2023-04-08T07:06:09.314Z,101446.02
2023-04-08T07:11:15.819Z,101444.80
2023-04-08T07:16:21.612Z,101449.27
2023-04-08T07:21:31.994Z,101448.63
2023-04-08T07:26:38.192Z,101452.10
2023-04-08T07:31:44.888Z,101458.30
2023-04-08T07:36:50.685Z,101457.17
2023-04-08T07:41:56.674Z,101464.54
2023-04-08T07:47:02.480Z,101466.58
2023-04-08T07:52:08.474Z,101461.91
2023-04-08T07:57:16.536Z,101469.40
2023-04-08T08:02:22.149Z,101468.73
2023-04-08T08:07:27.702Z,101463.94
2023-04-08T08:12:34.650Z,101462.74
2023-04-08T08:17:40.430Z,101460.06
2023-04-08T08:22:56.814Z,101461.18
2023-04-08T08:28:05.700Z,101460.52
2023-04-08T08:33:11.528Z,101459.64
2023-04-08T08:38:17.798Z,101458.73
2023-04-08T08:43:24.288Z,101457.70
2023-04-08T08:48:30.079Z,101451.59
2023-04-08T08:53:38.048Z,101449.56
2023-04-08T08:58:43.835Z,101447.30
2023-04-08T09:04:08.846Z,101450.61
2023-04-08T09:09:17.197Z,101453.08
2023-04-08T09:14:25.766Z,101454.70
2023-04-08T09:19:31.723Z,101459.59
2023-04-08T09:24:38.165Z,101457.55
2023-04-08T09:29:43.690Z,101459.57
2023-04-08T09:34:53.861Z,101471.96
2023-04-08T09:39:59.803Z,101467.52
2023-04-08T09:45:07.701Z,101466.44
2023-04-08T09:50:15.581Z,101463.67
2023-04-08T09:55:24.087Z,101463.52
2023-04-08T10:00:35.446Z,101461.86
2023-04-08T10:05:43.768Z,101460.04
2023-04-08T10:10:50.017Z,101456.89
2023-04-08T10:16:27.482Z,101454.01
2023-04-08T10:21:50.269Z,101450.52
2023-04-08T10:26:59.208Z,101449.73
2023-04-08T10:32:06.481Z,101443.46
2023-04-08T10:37:12.339Z,101441.18
2023-04-08T10:42:17.727Z,101442.36
2023-04-08T10:47:30.191Z,101446.94
2023-04-08T10:52:35.966Z,101444.69
2023-04-08T10:57:41.657Z,101437.68
2023-04-08T11:02:47.661Z,101431.99
2023-04-08T11:07:54.855Z,101427.11
2023-04-08T11:13:00.464Z,101423.17
2023-04-08T11:18:07.358Z,101425.24
2023-04-08T11:23:15.611Z,101423.11
2023-04-08T11:28:22.263Z,101421.39
2023-04-08T11:33:30.840Z,101426.30
2023-04-08T11:38:41.608Z,101418.77
2023-04-08T11:43:59.525Z,101421.02
2023-04-08T11:49:10.005Z,101414.23
2023-04-08T11:54:29.391Z,101413.48
2023-04-08T11:59:34.866Z,101410.71
2023-04-08T12:04:40.301Z,101405.89
2023-04-08T12:09:45.958Z,101402.05
2023-04-08T12:14:51.491Z,101398.56
2023-04-08T12:19:57.306Z,101390.77
2023-04-08T12:25:04.160Z,101386.97
2023-04-08T12:30:12.261Z,101387.17
2023-04-08T12:35:18.076Z,101377.48
2023-04-08T12:40:23.627Z,101374.05
2023-04-08T12:45:29.342Z,101373.23
2023-04-08T12:50:42.701Z,101371.55
2023-04-08T12:55:49.196Z,101363.77
2023-04-08T13:00:55.679Z,101362.98
2023-04-08T13:06:01.766Z,101361.15
2023-04-08T13:11:09.395Z,101357.70
2023-04-08T13:16:15.571Z,101355.05
2023-04-08T13:21:24.816Z,101350.74
2023-04-08T13:26:32.692Z,101343.88
2023-04-08T13:31:48.946Z,101343.20
2023-04-08T13:42:20.439Z,101349.61
2023-04-08T13:47:32.372Z,101343.52
2023-04-08T13:52:42.807Z,101343.60
2023-04-08T13:57:48.450Z,101346.84
2023-04-08T14:02:54.057Z,101345.18
2023-04-08T14:08:02.602Z,101344.23
2023-04-08T14:13:08.129Z,101340.08
2023-04-08T14:18:23.382Z,101339.57
2023-04-08T14:23:29.000Z,101336.30
2023-04-08T14:28:34.873Z,101336.33
2023-04-08T14:33:43.514Z,101330.72
2023-04-08T14:38:54.735Z,101325.60
2023-04-08T14:44:10.369Z,101329.73
2023-04-08T14:49:26.000Z,101331.06
2023-04-08T14:54:35.973Z,101326.65
2023-04-08T14:59:42.046Z,101326.20
2023-04-08T15:04:47.592Z,101331.11
2023-04-08T15:09:54.433Z,101325.64
2023-04-08T15:15:07.612Z,101327.77
2023-04-08T15:20:14.527Z,101329.88
2023-04-08T15:25:21.239Z,101333.65
2023-04-08T15:30:27.759Z,101337.98
2023-04-08T15:35:42.389Z,101336.48
2023-04-08T15:40:48.291Z,101343.08
2023-04-08T15:45:54.019Z,101341.52
2023-04-08T15:51:08.364Z,101343.08
2023-04-08T15:56:16.353Z,101342.45
2023-04-08T16:01:22.429Z,101349.11
2023-04-08T16:06:28.066Z,101353.88
2023-04-08T16:11:35.954Z,101349.95
2023-04-08T16:16:41.413Z,101354.44
2023-04-08T16:21:47.036Z,101356.17
2023-04-08T16:26:52.560Z,101354.12
2023-04-08T16:31:58.052Z,101353.68
2023-04-08T16:37:03.805Z,101351.72
2023-04-08T16:42:09.607Z,101355.98
2023-04-08T16:47:15.512Z,101357.09
2023-04-08T16:52:21.555Z,101363.36
2023-04-08T16:57:27.351Z,101368.33
2023-04-08T17:02:32.932Z,101373.63
2023-04-08T17:07:38.570Z,101375.63
2023-04-08T17:12:44.296Z,101382.18
2023-04-08T17:17:49.798Z,101388.92
2023-04-08T17:22:56.121Z,101388.91
2023-04-08T17:28:01.787Z,101401.08
2023-04-08T17:33:07.488Z,101399.41
2023-04-08T17:38:13.046Z,101405.29
2023-04-08T17:43:18.485Z,101418.65
2023-04-08T17:48:24.098Z,101427.92
2023-04-08T17:53:29.824Z,101442.62
2023-04-08T17:58:35.375Z,101450.22
2023-04-08T18:03:41.043Z,101461.13
2023-04-08T18:08:46.733Z,101469.80
2023-04-08T18:13:52.590Z,101479.00
2023-04-08T18:18:58.522Z,101489.48
2023-04-08T18:24:04.237Z,101488.95
2023-04-08T18:29:09.944Z,101485.08
2023-04-08T18:34:15.495Z,101486.88
2023-04-08T18:39:22.546Z,101485.88
2023-04-08T18:44:28.698Z,101482.79
2023-04-08T18:49:34.356Z,101483.67
2023-04-08T18:54:40.115Z,101480.55
2023-04-08T18:59:48.681Z,101475.86
2023-04-08T19:04:55.707Z,101473.73
2023-04-08T19:10:01.394Z,101471.77
2023-04-08T19:15:08.440Z,101467.59
2023-04-08T19:20:14.286Z,101460.70
2023-04-08T19:25:20.707Z,101461.95
2023-04-08T19:30:26.487Z,101462.66
2023-04-08T19:35:32.167Z,101460.40
2023-04-08T19:40:37.970Z,101457.14
2023-04-08T19:45:44.277Z,101456.61
2023-04-08T19:50:51.053Z,101456.77
2023-04-08T19:56:01.793Z,101458.85
2023-04-08T20:01:09.978Z,101454.17
2023-04-08T20:06:15.336Z,101454.53
2023-04-08T20:11:21.039Z,101456.95
2023-04-08T20:16:26.896Z,101458.48
2023-04-08T20:21:32.649Z,101457.96
2023-04-08T20:26:38.239Z,101456.23
2023-04-08T20:31:44.789Z,101460.39
2023-04-08T20:36:50.929Z,101458.14
2023-04-08T20:41:58.227Z,101456.77
2023-04-08T20:47:04.099Z,101453.85
2023-04-08T20:52:09.795Z,101450.92
2023-04-08T20:57:15.503Z,101455.79
2023-04-08T21:02:21.690Z,101459.79
2023-04-08T21:07:27.401Z,101457.91
2023-04-08T21:12:32.894Z,101462.05
2023-04-08T21:17:38.411Z,101458.77
2023-04-08T21:22:43.829Z,101457.21
2023-04-08T21:27:49.993Z,101448.88
2023-04-08T21:32:55.374Z,101439.52
2023-04-08T21:38:01.326Z,101433.80
2023-04-08T21:43:13.120Z,101439.38
2023-04-08T21:48:21.260Z,101439.71
2023-04-08T21:53:26.953Z,101436.23
2023-04-08T21:58:32.474Z,101431.56
2023-04-08T22:03:37.915Z,101431.92
2023-04-08T22:08:43.601Z,101426.55
2023-04-08T22:13:55.425Z,101419.61
2023-04-08T22:19:01.098Z,101413.89
2023-04-08T22:24:07.363Z,101410.41
2023-04-08T22:29:12.938Z,101409.20
2023-04-08T22:34:18.514Z,101408.16
2023-04-08T22:39:26.065Z,101405.03
2023-04-08T22:44:31.534Z,101401.58
2023-04-08T22:49:36.926Z,101400.02
2023-04-08T22:54:42.310Z,101387.54
2023-04-08T22:59:47.911Z,101392.58
2023-04-08T23:04:56.094Z,101396.23
2023-04-08T23:10:01.433Z,101397.29
2023-04-08T23:15:08.358Z,101389.84
2023-04-08T23:20:14.304Z,101382.74
2023-04-08T23:25:20.317Z,101385.36
2023-04-08T23:30:25.768Z,101382.73
2023-04-08T23:35:31.563Z,101387.39
2023-04-08T23:40:37.181Z,101384.08
2023-04-08T23:45:42.715Z,101377.66
2023-04-08T23:50:52.070Z,101373.52
2023-04-08T23:56:05.618Z,101366.41
